createdAt,value
2023-05-08T00:00:44.975Z,78.23
2023-05-08T00:03:33.841Z,78.14
2023-05-08T00:06:22.697Z,78.05
2023-05-08T00:09:11.334Z,78.28
2023-05-08T00:12:00.191Z,78.33
2023-05-08T00:14:49.058Z,78.10
2023-05-08T00:17:38.239Z,78.28
2023-05-08T00:20:26.893Z,78.20
2023-05-08T00:23:15.780Z,78.36
2023-05-08T00:26:04.614Z,78.40
2023-05-08T00:28:53.738Z,78.35
2023-05-08T00:31:42.562Z,78.35
2023-05-08T00:34:31.536Z,78.40
2023-05-08T00:37:20.173Z,78.97
2023-05-08T00:40:10.854Z,79.21
2023-05-08T00:42:59.815Z,79.27
2023-05-08T00:45:48.797Z,79.11
2023-05-08T00:48:39.866Z,79.22
2023-05-08T00:51:28.606Z,79.28
2023-05-08T00:54:17.675Z,79.34
2023-05-08T00:57:07.676Z,79.47
2023-05-08T00:59:57.005Z,79.41
2023-05-08T01:03:17.798Z,79.78
2023-05-08T01:06:07.181Z,79.71
2023-05-08T01:08:55.875Z,79.86
2023-05-08T01:12:24.737Z,80.03
2023-05-08T01:15:23.802Z,80.44
2023-05-08T01:18:22.029Z,80.43
2023-05-08T01:21:29.271Z,80.42
2023-05-08T01:24:31.112Z,80.38
2023-05-08T01:28:08.417Z,80.55
2023-05-08T01:31:03.191Z,80.49
2023-05-08T01:34:14.063Z,80.67
2023-05-08T01:37:07.435Z,81.00
2023-05-08T01:40:10.977Z,81.05
2023-05-08T01:43:14.707Z,81.10
2023-05-08T01:46:09.870Z,81.31
2023-05-08T01:49:25.664Z,81.33
2023-05-08T01:52:19.747Z,81.44
2023-05-08T01:55:16.504Z,81.69
2023-05-08T01:58:10.787Z,81.76
2023-05-08T02:01:02.736Z,81.91
2023-05-08T02:03:53.924Z,81.87
2023-05-08T02:06:43.414Z,81.94
2023-05-08T02:09:32.879Z,82.00
2023-05-08T02:12:23.126Z,82.10
2023-05-08T02:15:13.906Z,82.08
2023-05-08T02:18:05.578Z,82.19
2023-05-08T02:20:56.471Z,82.36
2023-05-08T02:23:46.893Z,82.52
2023-05-08T02:26:36.923Z,82.71
2023-05-08T02:29:26.397Z,82.73
2023-05-08T02:32:16.435Z,82.82
2023-05-08T02:35:06.021Z,82.88
2023-05-08T02:37:56.602Z,82.93
2023-05-08T02:40:51.450Z,82.90
2023-05-08T02:43:40.387Z,82.97
2023-05-08T02:46:39.872Z,83.12
2023-05-08T02:49:37.889Z,83.03
2023-05-08T02:52:35.259Z,83.31
2023-05-08T02:55:36.354Z,83.12
2023-05-08T02:58:35.193Z,83.11
2023-05-08T03:01:24.448Z,83.16
2023-05-08T03:04:22.685Z,83.24
2023-05-08T03:07:12.955Z,83.19
2023-05-08T03:10:11.379Z,83.08
2023-05-08T03:13:05.027Z,83.13
2023-05-08T03:16:01.271Z,82.85
2023-05-08T03:18:55.000Z,82.92
2023-05-08T03:21:44.684Z,82.85
2023-05-08T03:24:36.600Z,82.93
2023-05-08T03:27:26.389Z,82.97
2023-05-08T03:30:16.274Z,82.88
2023-05-08T03:33:09.077Z,83.07
2023-05-08T03:35:57.920Z,83.39
2023-05-08T03:38:46.751Z,83.42
2023-05-08T03:41:35.484Z,83.33
2023-05-08T03:44:25.469Z,83.81
2023-05-08T03:47:15.024Z,82.36
2023-05-08T03:50:04.040Z,80.80
2023-05-08T03:52:53.178Z,79.05
2023-05-08T03:55:42.312Z,77.29
2023-05-08T03:58:41.842Z,76.38
2023-05-08T04:01:44.544Z,74.72
2023-05-08T04:04:44.471Z,73.43
2023-05-08T04:07:43.035Z,71.83
2023-05-08T04:10:41.491Z,69.76
2023-05-08T04:13:32.573Z,68.82
2023-05-08T04:16:25.488Z,68.15
2023-05-08T04:19:27.685Z,66.36
2023-05-08T04:22:20.003Z,63.98
2023-05-08T04:25:11.416Z,64.71
2023-05-08T04:28:02.603Z,64.61
2023-05-08T04:30:53.162Z,64.53
2023-05-08T04:33:44.516Z,65.36
2023-05-08T04:36:34.308Z,64.83
2023-05-08T04:39:24.572Z,63.75
2023-05-08T04:42:13.836Z,64.21
2023-05-08T04:45:02.692Z,65.55
2023-05-08T04:47:52.024Z,65.92
2023-05-08T04:50:41.347Z,66.98
2023-05-08T04:53:30.345Z,67.74
2023-05-08T04:56:19.424Z,68.48
2023-05-08T04:59:08.275Z,69.52
2023-05-08T05:01:58.720Z,70.70
2023-05-08T05:04:47.676Z,71.80
2023-05-08T05:07:37.710Z,73.02
2023-05-08T05:10:27.365Z,73.89
2023-05-08T05:13:16.918Z,74.82
2023-05-08T05:16:05.871Z,75.74
2023-05-08T05:18:54.502Z,76.20
2023-05-08T05:21:43.538Z,76.63
2023-05-08T05:24:32.418Z,77.05
2023-05-08T05:27:21.442Z,77.39
2023-05-08T05:30:10.686Z,77.73
2023-05-08T05:33:00.211Z,77.88
2023-05-08T05:35:49.042Z,77.93
2023-05-08T05:38:37.870Z,78.28
2023-05-08T05:41:27.294Z,78.70
2023-05-08T05:44:16.465Z,78.96
2023-05-08T05:47:10.246Z,79.14
2023-05-08T05:49:59.814Z,78.94
2023-05-08T05:52:48.578Z,79.21
2023-05-08T05:55:38.335Z,79.60
2023-05-08T05:58:28.629Z,80.12
2023-05-08T06:01:17.613Z,80.34
2023-05-08T06:04:06.412Z,80.78
2023-05-08T06:06:55.365Z,81.23
2023-05-08T06:09:44.055Z,81.49
2023-05-08T06:12:32.674Z,81.34
2023-05-08T06:15:21.796Z,81.62
2023-05-08T06:18:10.501Z,81.84
2023-05-08T06:20:59.825Z,81.90
2023-05-08T06:23:49.151Z,82.04
2023-05-08T06:26:38.089Z,82.10
2023-05-08T06:29:27.029Z,81.82
2023-05-08T06:32:15.848Z,81.67
2023-05-08T06:35:04.874Z,81.32
2023-05-08T06:37:53.529Z,81.76
2023-05-08T06:40:46.292Z,81.61
2023-05-08T06:43:35.109Z,81.79
2023-05-08T06:46:24.005Z,81.52
2023-05-08T06:49:13.065Z,81.12
2023-05-08T06:52:01.839Z,80.84
2023-05-08T06:54:50.726Z,80.41
2023-05-08T06:57:39.442Z,80.02
2023-05-08T07:00:28.208Z,79.28
2023-05-08T07:03:16.689Z,78.43
2023-05-08T07:06:05.674Z,77.63
2023-05-08T07:08:54.883Z,77.59
2023-05-08T07:11:43.730Z,76.33
2023-05-08T07:14:32.479Z,76.75
2023-05-08T07:17:21.255Z,76.72
2023-05-08T07:20:10.148Z,76.15
2023-05-08T07:22:59.361Z,76.48
2023-05-08T07:25:48.107Z,76.22
2023-05-08T07:28:36.970Z,76.82
2023-05-08T07:31:26.598Z,76.58
2023-05-08T07:34:15.504Z,74.08
2023-05-08T07:37:04.062Z,73.47
2023-05-08T07:39:52.875Z,73.62
2023-05-08T07:42:45.592Z,74.63
2023-05-08T07:45:36.089Z,73.39
2023-05-08T07:48:24.704Z,72.39
2023-05-08T07:51:14.246Z,72.75
2023-05-08T07:54:02.808Z,71.95
2023-05-08T07:56:51.562Z,72.41
2023-05-08T07:59:40.621Z,71.98
2023-05-08T08:02:29.432Z,71.07
2023-05-08T08:05:18.265Z,71.15
2023-05-08T08:08:07.117Z,71.34
2023-05-08T08:10:55.872Z,70.26
2023-05-08T08:13:44.579Z,71.12
2023-05-08T08:16:33.491Z,67.56
2023-05-08T08:19:22.159Z,68.64
2023-05-08T08:22:10.820Z,68.91
2023-05-08T08:24:59.801Z,69.97
2023-05-08T08:27:48.519Z,70.52
2023-05-08T08:30:37.210Z,69.87
2023-05-08T08:33:28.850Z,68.88
2023-05-08T08:36:17.546Z,69.16
2023-05-08T08:39:06.327Z,68.16
2023-05-08T08:41:55.148Z,66.24
2023-05-08T08:44:44.092Z,66.18
2023-05-08T08:47:37.756Z,66.53
2023-05-08T08:50:27.476Z,66.28
2023-05-08T08:53:26.264Z,66.60
2023-05-08T08:56:17.895Z,67.00
2023-05-08T08:59:08.664Z,66.66
2023-05-08T09:02:01.325Z,65.37
2023-05-08T09:04:50.126Z,64.64
2023-05-08T09:07:41.110Z,64.81
2023-05-08T09:10:29.797Z,65.09
2023-05-08T09:13:19.920Z,64.37
2023-05-08T09:16:08.833Z,64.62
2023-05-08T09:18:57.683Z,63.77
2023-05-08T09:21:46.901Z,63.20
2023-05-08T09:24:54.612Z,64.10
2023-05-08T09:27:43.232Z,63.82
2023-05-08T09:30:31.790Z,62.94
2023-05-08T09:33:22.100Z,62.00
2023-05-08T09:36:27.884Z,62.27
2023-05-08T09:39:23.640Z,63.17
2023-05-08T09:42:12.470Z,62.29
2023-05-08T09:45:01.218Z,59.23
2023-05-08T09:47:50.029Z,59.95
2023-05-08T09:50:38.579Z,59.90
2023-05-08T09:53:33.286Z,60.12
2023-05-08T09:56:31.409Z,57.55
2023-05-08T09:59:28.834Z,57.89
2023-05-08T10:02:20.219Z,58.28
2023-05-08T10:05:26.627Z,55.24
2023-05-08T10:08:23.717Z,56.74
2023-05-08T10:11:19.997Z,57.51
2023-05-08T10:14:10.025Z,54.90
2023-05-08T10:17:01.574Z,56.14
2023-05-08T10:19:57.501Z,57.09
2023-05-08T10:22:49.065Z,58.33
2023-05-08T10:25:43.568Z,57.21
2023-05-08T10:29:07.207Z,55.89
2023-05-08T10:31:58.973Z,56.01
2023-05-08T10:34:54.240Z,56.33
2023-05-08T10:37:45.905Z,55.38
2023-05-08T10:40:35.038Z,55.34
2023-05-08T10:43:25.473Z,56.07
2023-05-08T10:46:37.585Z,55.69
2023-05-08T10:49:47.955Z,56.74
2023-05-08T10:52:45.061Z,55.51
2023-05-08T10:55:37.531Z,55.57
2023-05-08T10:58:34.046Z,56.10
2023-05-08T11:01:22.867Z,57.11
2023-05-08T11:04:21.231Z,58.17
2023-05-08T11:07:10.118Z,57.76
2023-05-08T11:10:13.386Z,56.25
2023-05-08T11:13:04.394Z,55.01
2023-05-08T11:15:53.169Z,55.82
2023-05-08T11:19:19.908Z,57.26
2023-05-08T11:22:29.645Z,55.21
2023-05-08T11:25:19.303Z,54.87
2023-05-08T11:28:08.131Z,54.90
2023-05-08T11:30:57.074Z,55.23
2023-05-08T11:33:46.514Z,55.65
2023-05-08T11:36:36.869Z,55.46
2023-05-08T11:39:25.640Z,53.90
2023-05-08T11:42:29.880Z,54.63
2023-05-08T11:45:19.722Z,55.25
2023-05-08T11:48:14.269Z,54.88
2023-05-08T11:51:03.708Z,55.30
2023-05-08T11:53:52.590Z,54.19
2023-05-08T11:56:41.263Z,54.06
2023-05-08T11:59:35.531Z,53.68
2023-05-08T12:02:44.206Z,54.20
2023-05-08T12:05:32.987Z,54.02
2023-05-08T12:08:21.515Z,54.37
2023-05-08T12:11:10.505Z,52.99
2023-05-08T12:13:59.587Z,52.20
2023-05-08T12:16:48.272Z,53.70
2023-05-08T12:19:37.261Z,53.69
2023-05-08T12:22:26.480Z,50.92
2023-05-08T12:25:17.650Z,51.98
2023-05-08T12:28:07.543Z,52.51
2023-05-08T12:30:56.619Z,51.60
2023-05-08T12:33:45.535Z,52.76
2023-05-08T12:36:37.890Z,52.31
2023-05-08T12:39:26.894Z,50.99
2023-05-08T12:42:15.769Z,52.11
2023-05-08T12:45:05.135Z,52.19
2023-05-08T12:47:59.081Z,50.33
2023-05-08T12:50:48.013Z,50.80
2023-05-08T12:53:37.932Z,51.91
2023-05-08T12:56:26.686Z,52.06
2023-05-08T12:59:15.721Z,52.30
2023-05-08T13:02:04.625Z,51.97
2023-05-08T13:04:56.902Z,51.30
2023-05-08T13:07:45.650Z,51.19
2023-05-08T13:10:46.556Z,51.03
2023-05-08T13:13:36.493Z,51.94
2023-05-08T13:16:26.220Z,52.44
2023-05-08T13:19:16.371Z,52.79
2023-05-08T13:22:05.365Z,52.91
2023-05-08T13:24:54.398Z,51.15
2023-05-08T13:27:43.164Z,50.28
2023-05-08T13:30:31.971Z,50.85
2023-05-08T13:33:20.999Z,51.37
2023-05-08T13:36:09.803Z,49.92
2023-05-08T13:38:58.525Z,49.86
2023-05-08T13:41:47.301Z,49.28
2023-05-08T13:44:36.224Z,50.21
2023-05-08T13:47:25.298Z,50.83
2023-05-08T13:50:16.400Z,51.10
2023-05-08T13:53:06.184Z,51.19
2023-05-08T13:55:54.899Z,50.92
2023-05-08T13:58:43.866Z,51.27
2023-05-08T14:01:32.605Z,50.31
2023-05-08T14:04:21.388Z,51.04
2023-05-08T14:07:10.499Z,51.83
2023-05-08T14:09:59.546Z,50.17
2023-05-08T14:12:48.582Z,50.60
2023-05-08T14:15:38.084Z,49.70
2023-05-08T14:18:26.997Z,50.11
2023-05-08T14:21:15.680Z,50.61
2023-05-08T14:24:04.848Z,49.76
2023-05-08T14:26:54.222Z,49.68
2023-05-08T14:29:43.371Z,50.16
2023-05-08T14:32:32.087Z,50.35
2023-05-08T14:35:20.976Z,50.04
2023-05-08T14:38:12.975Z,49.41
2023-05-08T14:41:04.474Z,49.15
2023-05-08T14:43:53.466Z,47.78
2023-05-08T14:46:42.710Z,47.19
2023-05-08T14:49:38.248Z,48.30
2023-05-08T14:52:27.667Z,48.92
2023-05-08T14:58:29.112Z,50.61
2023-05-08T15:01:18.203Z,51.15
2023-05-08T15:04:07.146Z,50.67
2023-05-08T15:06:55.862Z,50.12
2023-05-08T15:09:44.725Z,50.08
2023-05-08T15:12:33.756Z,48.88
2023-05-08T15:15:22.876Z,49.43
2023-05-08T15:18:11.604Z,49.74
2023-05-08T15:21:00.581Z,49.83
2023-05-08T15:23:49.387Z,50.05
2023-05-08T15:26:37.863Z,49.51
2023-05-08T15:29:29.398Z,50.08
2023-05-08T15:32:18.351Z,50.19
2023-05-08T15:35:07.535Z,50.07
2023-05-08T15:37:56.139Z,49.99
2023-05-08T15:40:44.986Z,49.92
2023-05-08T15:43:33.807Z,49.73
2023-05-08T15:46:23.144Z,49.65
2023-05-08T15:49:12.138Z,50.17
2023-05-08T15:52:00.769Z,49.76
2023-05-08T15:54:50.498Z,49.16
2023-05-08T15:57:39.195Z,49.44
2023-05-08T16:00:36.841Z,49.88
2023-05-08T16:03:33.848Z,50.17
2023-05-08T16:06:22.962Z,50.96
2023-05-08T16:09:11.852Z,51.21
2023-05-08T16:12:02.474Z,51.34
2023-05-08T16:14:51.216Z,50.94
2023-05-08T16:17:39.937Z,51.15
2023-05-08T16:20:28.844Z,51.24
2023-05-08T16:23:17.874Z,51.10
2023-05-08T16:26:06.479Z,50.67
2023-05-08T16:28:55.304Z,51.15
2023-05-08T16:31:43.969Z,51.33
2023-05-08T16:34:32.666Z,51.34
2023-05-08T16:37:21.413Z,51.52
2023-05-08T16:40:10.760Z,51.50
2023-05-08T16:42:59.477Z,51.23
2023-05-08T16:45:51.453Z,51.37
2023-05-08T16:48:40.335Z,51.52
2023-05-08T16:51:29.069Z,51.20
2023-05-08T16:54:17.771Z,51.02
2023-05-08T16:57:06.437Z,51.58
2023-05-08T16:59:55.076Z,51.10
2023-05-08T17:02:44.131Z,51.30
2023-05-08T17:05:33.737Z,51.24
2023-05-08T17:08:22.408Z,51.38
2023-05-08T17:11:11.110Z,51.62
2023-05-08T17:13:59.849Z,51.68
2023-05-08T17:16:51.103Z,52.32
2023-05-08T17:19:39.916Z,52.29
2023-05-08T17:22:28.568Z,52.46
2023-05-08T17:25:17.676Z,52.16
2023-05-08T17:28:06.504Z,52.27
2023-05-08T17:30:55.351Z,52.68
2023-05-08T17:33:44.041Z,52.78
2023-05-08T17:36:32.804Z,52.75
2023-05-08T17:39:22.026Z,53.12
2023-05-08T17:42:10.621Z,53.28
2023-05-08T17:44:59.450Z,53.43
2023-05-08T17:47:48.351Z,53.66
2023-05-08T17:50:39.523Z,53.98
2023-05-08T17:53:32.103Z,54.28
2023-05-08T17:56:21.359Z,54.40
2023-05-08T17:59:10.010Z,54.56
2023-05-08T18:01:58.647Z,55.10
2023-05-08T18:04:47.705Z,55.44
2023-05-08T18:07:36.492Z,56.04
2023-05-08T18:10:25.581Z,56.43
2023-05-08T18:13:14.446Z,57.23
2023-05-08T18:16:03.465Z,57.63
2023-05-08T18:18:52.391Z,57.97
2023-05-08T18:21:41.202Z,58.32
2023-05-08T18:24:29.942Z,58.54
2023-05-08T18:27:18.800Z,58.90
2023-05-08T18:30:08.545Z,59.34
2023-05-08T18:32:57.660Z,59.53
2023-05-08T18:35:46.578Z,59.95
2023-05-08T18:38:36.510Z,60.20
2023-05-08T18:41:25.106Z,60.61
2023-05-08T18:44:14.059Z,60.76
2023-05-08T18:47:02.845Z,60.96
2023-05-08T18:49:52.680Z,61.20
2023-05-08T18:52:41.437Z,61.78
2023-05-08T18:55:30.039Z,62.16
2023-05-08T18:58:18.895Z,62.17
2023-05-08T19:01:07.930Z,62.31
2023-05-08T19:03:56.719Z,62.38
2023-05-08T19:06:45.927Z,62.62
2023-05-08T19:09:35.038Z,62.68
2023-05-08T19:12:24.127Z,62.76
2023-05-08T19:15:14.071Z,63.21
2023-05-08T19:18:03.768Z,63.46
2023-05-08T19:20:53.038Z,63.61
2023-05-08T19:23:42.563Z,63.94
2023-05-08T19:26:31.428Z,63.94
2023-05-08T19:29:20.110Z,64.11
2023-05-08T19:32:08.864Z,64.26
2023-05-08T19:34:58.058Z,64.51
2023-05-08T19:37:46.909Z,64.65
2023-05-08T19:40:44.835Z,64.83
2023-05-08T19:43:44.208Z,65.11
2023-05-08T19:46:33.565Z,65.35
2023-05-08T19:49:22.729Z,65.58
2023-05-08T19:52:11.814Z,65.71
2023-05-08T19:55:00.654Z,65.83
2023-05-08T19:57:49.588Z,65.98
2023-05-08T20:00:39.052Z,66.06
2023-05-08T20:03:28.507Z,66.17
2023-05-08T20:06:19.709Z,66.17
2023-05-08T20:09:08.822Z,66.31
2023-05-08T20:11:57.526Z,66.50
2023-05-08T20:14:48.911Z,66.56
2023-05-08T20:17:37.780Z,66.67
2023-05-08T20:20:30.974Z,66.78
2023-05-08T20:23:19.862Z,66.84
2023-05-08T20:26:10.503Z,67.01
2023-05-08T20:28:59.762Z,67.19
2023-05-08T20:31:49.189Z,67.26
2023-05-08T20:34:37.767Z,67.39
2023-05-08T20:37:26.417Z,67.42
2023-05-08T20:40:15.660Z,67.43
2023-05-08T20:43:04.648Z,67.67
2023-05-08T20:45:53.450Z,67.80
2023-05-08T20:48:42.487Z,67.90
2023-05-08T20:51:32.202Z,67.92
2023-05-08T20:54:21.729Z,67.85
2023-05-08T20:57:10.622Z,68.12
2023-05-08T20:59:59.420Z,68.37
2023-05-08T21:02:48.341Z,68.47
2023-05-08T21:05:37.171Z,68.55
2023-05-08T21:08:28.898Z,68.72
2023-05-08T21:11:18.058Z,68.85
2023-05-08T21:14:07.033Z,68.95
2023-05-08T21:16:55.796Z,68.93
2023-05-08T21:19:44.593Z,68.95
2023-05-08T21:22:34.020Z,68.99
2023-05-08T21:25:35.356Z,69.07
2023-05-08T21:28:24.095Z,69.12
2023-05-08T21:31:12.740Z,69.17
2023-05-08T21:34:02.798Z,69.24
2023-05-08T21:36:51.496Z,69.37
2023-05-08T21:39:41.588Z,69.48
2023-05-08T21:42:31.060Z,69.52
2023-05-08T21:45:19.772Z,69.61
2023-05-08T21:48:08.570Z,69.76
2023-05-08T21:50:57.542Z,69.60
2023-05-08T21:53:46.275Z,69.64
2023-05-08T21:56:35.092Z,69.83
2023-05-08T21:59:23.796Z,69.96
2023-05-08T22:02:13.047Z,70.02
2023-05-08T22:05:03.429Z,70.09
2023-05-08T22:07:52.390Z,70.34
2023-05-08T22:10:44.389Z,70.53
2023-05-08T22:13:33.199Z,70.60
2023-05-08T22:16:21.960Z,70.70
2023-05-08T22:19:11.565Z,70.79
2023-05-08T22:22:00.204Z,70.85
2023-05-08T22:24:49.011Z,70.91
2023-05-08T22:27:37.627Z,70.83
2023-05-08T22:30:26.339Z,70.73
2023-05-08T22:33:15.105Z,71.04
2023-05-08T22:36:03.983Z,71.23
2023-05-08T22:38:52.714Z,71.37
2023-05-08T22:41:41.359Z,71.28
2023-05-08T22:44:30.568Z,71.30
2023-05-08T22:47:19.336Z,71.56
2023-05-08T22:50:09.259Z,71.69
2023-05-08T22:52:58.065Z,71.84
2023-05-08T22:55:46.944Z,71.78
2023-05-08T22:58:35.794Z,71.70
2023-05-08T23:01:25.030Z,71.81
2023-05-08T23:04:13.968Z,71.88
2023-05-08T23:07:02.561Z,71.79
2023-05-08T23:09:51.171Z,71.89
2023-05-08T23:12:40.372Z,72.02
2023-05-08T23:15:29.147Z,72.22
2023-05-08T23:18:17.869Z,72.23
2023-05-08T23:21:07.551Z,72.11
2023-05-08T23:23:56.555Z,72.25
2023-05-08T23:26:48.456Z,72.36
2023-05-08T23:29:37.098Z,72.54
2023-05-08T23:32:26.010Z,72.62
2023-05-08T23:35:14.856Z,72.80
2023-05-08T23:38:03.766Z,72.72
2023-05-08T23:40:52.491Z,72.65
2023-05-08T23:43:41.255Z,72.72
2023-05-08T23:46:29.905Z,72.79
2023-05-08T23:49:19.105Z,72.92
2023-05-08T23:52:08.584Z,72.84
2023-05-08T23:54:57.399Z,72.84
2023-05-08T23:57:46.355Z,72.76
